Time;durP1;ratioP1;P1;durP2;ratioP2;P2;SDS_P1;SDS_P2;PMS_P1;PMS_P2;Temp;Humidity;BMP_temperature;BMP_pressure;BME280_temperature;BME280_humidity;BME280_pressure;Samples;Min_cycle;Max_cycle;Signal;HPM_P1;HPM_P2
2023/04/26 00:02:10;;;;;;;1999.90;999.90;;;5.70;99.90;;;;;;5048744;28;20432;-72
2023/04/26 00:04:37;;;;;;;1999.90;999.90;;;5.60;99.90;;;;;;5053562;28;20435;-71
2023/04/26 00:07:05;;;;;;;1999.90;999.90;;;5.70;99.90;;;;;;5057300;28;20429;-71
2023/04/26 00:09:33;;;;;;;1999.90;999.90;;;5.60;99.90;;;;;;5059042;28;20508;-71
2023/04/26 00:12:00;;;;;;;1999.90;999.90;;;5.50;99.90;;;;;;5054129;28;20430;-71
2023/04/26 00:14:27;;;;;;;1999.90;999.90;;;5.50;99.90;;;;;;5051693;28;20503;-71
2023/04/26 00:16:54;;;;;;;1999.90;999.90;;;5.50;99.90;;;;;;5051942;28;20487;-71
2023/04/26 00:19:21;;;;;;;1999.90;999.90;;;5.50;99.90;;;;;;5057926;28;20424;-71
2023/04/26 00:21:47;;;;;;;1999.90;999.90;;;5.40;99.90;;;;;;5055670;28;20438;-70
2023/04/26 00:24:14;;;;;;;1999.90;999.90;;;5.50;99.90;;;;;;5051627;28;20441;-73
2023/04/26 00:26:42;;;;;;;1999.90;999.90;;;5.50;99.90;;;;;;5052792;28;20451;-72
2023/04/26 00:29:09;;;;;;;1999.90;999.90;;;5.50;99.90;;;;;;5050666;28;20973;-71
2023/04/26 00:31:36;;;;;;;1999.90;999.90;;;5.50;99.90;;;;;;5056964;28;20479;-69
2023/04/26 00:34:02;;;;;;;1999.90;999.90;;;5.50;99.90;;;;;;5054380;28;20424;-73
2023/04/26 00:36:31;;;;;;;1999.90;999.90;;;5.50;99.90;;;;;;5049903;28;20432;-70
2023/04/26 00:38:57;;;;;;;1999.90;999.90;;;5.40;99.90;;;;;;5052454;28;20437;-71
2023/04/26 00:41:25;;;;;;;1999.90;999.90;;;5.30;99.90;;;;;;5060545;28;20844;-70
2023/04/26 00:43:53;;;;;;;1999.90;999.90;;;5.40;99.90;;;;;;5053784;28;20933;-72
2023/04/26 00:46:20;;;;;;;1999.90;999.90;;;5.30;99.90;;;;;;5048492;28;20435;-74
2023/04/26 00:48:47;;;;;;;1999.90;999.90;;;5.30;99.90;;;;;;5051191;28;20661;-73
2023/04/26 00:51:15;;;;;;;1999.90;999.90;;;5.40;99.90;;;;;;5048243;28;20919;-72
2023/04/26 00:53:43;;;;;;;1999.90;999.90;;;5.30;99.90;;;;;;5058268;28;20526;-70
2023/04/26 00:56:11;;;;;;;1999.90;999.90;;;5.20;99.90;;;;;;5055543;28;20497;-72
2023/04/26 00:58:38;;;;;;;1999.90;999.90;;;5.30;99.90;;;;;;5049896;28;20431;-68
2023/04/26 01:01:07;;;;;;;1999.90;999.90;;;5.30;99.90;;;;;;5054003;28;20441;-72
2023/04/26 01:03:34;;;;;;;1999.90;999.90;;;5.30;99.90;;;;;;5057466;28;20526;-70
2023/04/26 01:06:00;;;;;;;1999.90;999.90;;;5.30;99.90;;;;;;5055418;28;20503;-71
2023/04/26 01:08:27;;;;;;;1999.90;999.90;;;5.20;99.90;;;;;;5055140;28;20443;-71
2023/04/26 01:10:54;;;;;;;1999.90;999.90;;;5.20;99.90;;;;;;5051438;28;20490;-74
2023/04/26 01:13:21;;;;;;;1999.90;999.90;;;5.20;99.90;;;;;;5056016;28;20431;-73
2023/04/26 01:15:48;;;;;;;1999.90;999.90;;;5.20;99.90;;;;;;5055969;28;20427;-71
2023/04/26 01:18:16;;;;;;;1999.90;999.90;;;5.30;99.90;;;;;;5053677;28;21111;-71
2023/04/26 01:20:43;;;;;;;1999.90;999.90;;;5.30;99.90;;;;;;5048596;28;20441;-73
2023/04/26 01:23:11;;;;;;;1999.90;999.90;;;5.30;99.90;;;;;;5052610;28;20437;-71
2023/04/26 01:25:38;;;;;;;1999.90;999.90;;;5.30;99.90;;;;;;5057974;28;20431;-71
2023/04/26 01:28:04;;;;;;;1999.90;999.90;;;5.20;99.90;;;;;;5057783;28;20421;-71
2023/04/26 01:30:31;;;;;;;1999.90;999.90;;;5.20;99.90;;;;;;5055445;28;20439;-72
2023/04/26 01:32:58;;;;;;;1999.90;999.90;;;5.10;99.90;;;;;;5051497;28;20433;-72
2023/04/26 01:35:25;;;;;;;1999.90;999.90;;;5.00;99.90;;;;;;5050681;28;20451;-71
2023/04/26 01:37:51;;;;;;;1999.90;999.90;;;5.10;99.90;;;;;;5048290;28;20462;-71
2023/04/26 01:40:20;;;;;;;1999.90;999.90;;;5.00;99.90;;;;;;5050761;28;20502;-71
2023/04/26 01:42:46;;;;;;;1999.90;999.90;;;5.10;99.90;;;;;;5052117;28;20433;-72
2023/04/26 01:45:13;;;;;;;1999.90;999.90;;;5.00;99.90;;;;;;5051295;28;20478;-72
2023/04/26 01:47:40;;;;;;;1999.90;999.90;;;5.00;99.90;;;;;;5052256;28;20442;-72
2023/04/26 01:50:08;;;;;;;1999.90;999.90;;;5.00;99.90;;;;;;5051812;28;20447;-71
2023/04/26 01:52:35;;;;;;;1999.90;999.90;;;5.00;99.90;;;;;;5052304;28;20827;-71
2023/04/26 01:55:02;;;;;;;1999.90;999.90;;;4.90;99.90;;;;;;5051374;28;20433;-68
2023/04/26 01:57:30;;;;;;;1999.90;999.90;;;4.90;99.90;;;;;;5051231;28;20487;-71
2023/04/26 01:59:58;;;;;;;1999.90;999.90;;;4.90;99.90;;;;;;5052383;28;20433;-75
2023/04/26 02:02:25;;;;;;;1999.90;999.90;;;4.80;99.90;;;;;;5053268;28;20423;-72
2023/04/26 02:04:51;;;;;;;1999.90;999.90;;;4.80;99.90;;;;;;5054499;28;21042;-73
2023/04/26 02:07:18;;;;;;;1999.90;999.90;;;4.80;99.90;;;;;;5060002;28;20431;-68
2023/04/26 02:09:45;;;;;;;1999.90;999.90;;;4.80;99.90;;;;;;5055860;28;20425;-76
2023/04/26 02:12:12;;;;;;;1999.90;999.90;;;4.80;99.90;;;;;;5054817;28;20455;-74
2023/04/26 02:14:40;;;;;;;1999.90;999.90;;;4.80;99.90;;;;;;5057379;28;20427;-72
2023/04/26 02:17:07;;;;;;;1999.90;999.90;;;4.70;99.90;;;;;;5058851;28;20494;-71
2023/04/26 02:19:34;;;;;;;1999.90;999.90;;;4.80;99.90;;;;;;5065450;28;20423;-72
2023/04/26 02:22:01;;;;;;;1999.90;999.90;;;4.80;99.90;;;;;;5046490;28;20969;-72
2023/04/26 02:24:28;;;;;;;1999.90;999.90;;;4.80;99.90;;;;;;5050530;28;20441;-72
2023/04/26 02:26:59;;;;;;;1999.90;999.90;;;4.90;99.90;;;;;;5052760;28;20437;-72
2023/04/26 02:29:25;;;;;;;1999.90;999.90;;;4.90;99.90;;;;;;5056518;28;20415;-71
2023/04/26 02:31:53;;;;;;;1999.90;999.90;;;4.90;99.90;;;;;;5044655;28;20425;-70
2023/04/26 02:34:20;;;;;;;1999.90;999.90;;;4.90;99.90;;;;;;5051463;28;20441;-72
2023/04/26 02:36:47;;;;;;;1999.90;999.90;;;4.80;99.90;;;;;;5049215;28;20436;-73
2023/04/26 02:39:14;;;;;;;1999.90;999.90;;;4.80;99.90;;;;;;5051155;28;20426;-71
2023/04/26 02:41:41;;;;;;;1999.90;999.90;;;4.80;99.90;;;;;;5054216;28;20443;-73
2023/04/26 02:44:07;;;;;;;1999.90;999.90;;;4.70;99.90;;;;;;5062414;28;20429;-73
2023/04/26 02:46:34;;;;;;;1999.90;999.90;;;4.70;99.90;;;;;;5053866;28;20433;-72
2023/04/26 02:49:02;;;;;;;1999.90;999.90;;;4.80;99.90;;;;;;5049449;28;20440;-69
2023/04/26 02:51:29;;;;;;;1999.90;999.90;;;4.80;99.90;;;;;;5049761;28;20431;-70
2023/04/26 02:53:55;;;;;;;1999.90;999.90;;;4.80;99.90;;;;;;5054889;28;20463;-71
2023/04/26 02:56:22;;;;;;;1999.90;999.90;;;4.80;99.90;;;;;;5055944;28;20457;-72
2023/04/26 02:58:49;;;;;;;1999.90;999.90;;;4.70;99.90;;;;;;5062158;28;20485;-74
2023/04/26 03:01:16;;;;;;;1999.90;999.90;;;4.70;99.90;;;;;;5046042;28;20441;-72
2023/04/26 03:03:43;;;;;;;1999.90;999.90;;;4.70;99.90;;;;;;5049745;28;20440;-72
2023/04/26 03:06:11;;;;;;;1999.90;999.90;;;4.70;99.90;;;;;;5056098;28;20429;-72
2023/04/26 03:08:38;;;;;;;1999.90;999.90;;;4.80;99.90;;;;;;5056970;28;20481;-72
2023/04/26 03:11:05;;;;;;;1999.90;999.90;;;4.90;99.90;;;;;;5059707;28;20437;-74
2023/04/26 03:13:32;;;;;;;1999.90;999.90;;;5.00;99.90;;;;;;5067750;28;20431;-73
2023/04/26 03:15:59;;;;;;;1999.90;999.90;;;5.00;99.90;;;;;;5049729;28;20433;-70
2023/04/26 03:18:25;;;;;;;1999.90;999.90;;;4.90;99.90;;;;;;5049247;28;21155;-71
2023/04/26 03:20:52;;;;;;;1999.90;999.90;;;4.90;99.90;;;;;;5055967;28;20503;-71
2023/04/26 03:23:23;;;;;;;1999.90;999.90;;;4.90;99.90;;;;;;5062281;28;20427;-70
2023/04/26 03:25:49;;;;;;;1999.90;999.90;;;4.80;99.90;;;;;;5062543;28;20519;-74
2023/04/26 03:28:16;;;;;;;1999.90;999.90;;;4.80;99.90;;;;;;5058643;28;20512;-70
2023/04/26 03:30:43;;;;;;;1999.90;999.90;;;4.70;99.90;;;;;;5046734;28;20459;-73
2023/04/26 03:33:09;;;;;;;1999.90;999.90;;;4.70;99.90;;;;;;5050277;28;20429;-77
2023/04/26 03:35:36;;;;;;;1999.90;999.90;;;4.70;99.90;;;;;;5049422;28;20433;-69
2023/04/26 03:38:03;;;;;;;1999.90;999.90;;;4.70;99.90;;;;;;5041310;28;20520;-73
2023/04/26 03:40:31;;;;;;;1999.90;999.90;;;4.70;99.90;;;;;;5049819;28;20475;-69
2023/04/26 03:42:57;;;;;;;1999.90;999.90;;;4.70;99.90;;;;;;5049817;28;20465;-69
2023/04/26 03:45:25;;;;;;;1999.90;999.90;;;4.60;99.90;;;;;;5049380;28;20432;-71
2023/04/26 03:47:52;;;;;;;1999.90;999.90;;;4.60;99.90;;;;;;5045220;28;20434;-73
2023/04/26 03:50:19;;;;;;;1999.90;999.90;;;4.50;99.90;;;;;;5049267;28;20436;-68
2023/04/26 03:52:46;;;;;;;1999.90;999.90;;;4.50;99.90;;;;;;5049957;28;20503;-69
2023/04/26 03:55:12;;;;;;;1999.90;999.90;;;4.50;99.90;;;;;;5048304;28;20433;-70
2023/04/26 03:57:40;;;;;;;1999.90;999.90;;;4.60;99.90;;;;;;5050734;28;20449;-71
2023/04/26 04:00:10;;;;;;;1999.90;999.90;;;4.60;99.90;;;;;;5050172;28;20945;-76
2023/04/26 04:02:37;;;;;;;1999.90;999.90;;;4.50;99.90;;;;;;5049363;28;20846;-70
2023/04/26 04:05:04;;;;;;;1999.90;999.90;;;4.50;99.90;;;;;;5058125;28;20437;-70
2023/04/26 04:07:31;;;;;;;1999.90;999.90;;;4.60;99.90;;;;;;5057082;28;20911;-73
2023/04/26 04:09:58;;;;;;;1999.90;999.90;;;4.60;99.90;;;;;;5051196;28;20513;-71
2023/04/26 04:12:25;;;;;;;1999.90;999.90;;;4.50;99.90;;;;;;5056512;28;20435;-73
2023/04/26 04:14:53;;;;;;;1999.90;999.90;;;4.50;99.90;;;;;;5057046;28;20427;-70
2023/04/26 04:17:20;;;;;;;1999.90;999.90;;;4.50;99.90;;;;;;5063363;28;20975;-71
2023/04/26 04:19:46;;;;;;;1999.90;999.90;;;4.60;99.90;;;;;;5060731;28;20436;-69
2023/04/26 04:22:13;;;;;;;1999.90;999.90;;;4.70;99.90;;;;;;5047600;28;20436;-71
2023/04/26 04:24:41;;;;;;;1999.90;999.90;;;4.80;99.90;;;;;;5049067;28;20639;-72
2023/04/26 04:27:07;;;;;;;1999.90;999.90;;;4.90;99.90;;;;;;5056942;28;20498;-71
2023/04/26 04:29:34;;;;;;;1999.90;999.90;;;5.00;99.90;;;;;;5054428;28;20432;-72
2023/04/26 04:32:03;;;;;;;1999.90;999.90;;;5.00;99.90;;;;;;5047664;28;20437;-72
2023/04/26 04:34:34;;;;;;;1999.90;999.90;;;5.00;99.90;;;;;;5047292;28;20433;-72
2023/04/26 04:37:01;;;;;;;1999.90;999.90;;;5.10;99.90;;;;;;5051009;28;20465;-72
2023/04/26 04:39:28;;;;;;;1999.90;999.90;;;5.10;99.90;;;;;;5047069;28;20429;-72
2023/04/26 04:41:55;;;;;;;1999.90;999.90;;;5.00;99.90;;;;;;5049784;28;22214;-70
2023/04/26 04:44:22;;;;;;;1999.90;999.90;;;4.90;99.90;;;;;;5053638;28;20528;-73
2023/04/26 04:46:49;;;;;;;1999.90;999.90;;;5.00;99.90;;;;;;5047364;28;20846;-74
2023/04/26 04:49:17;;;;;;;1999.90;999.90;;;4.90;99.90;;;;;;5048855;28;20430;-71
2023/04/26 04:51:44;;;;;;;1999.90;999.90;;;5.00;99.90;;;;;;5052306;28;20445;-71
2023/04/26 04:54:11;;;;;;;1999.90;999.90;;;5.00;99.90;;;;;;5059088;28;20428;-73
2023/04/26 04:56:38;;;;;;;1999.90;999.90;;;4.90;99.90;;;;;;5061497;28;20427;-72
2023/04/26 04:59:05;;;;;;;1999.90;999.90;;;4.90;99.90;;;;;;5049317;28;20472;-73
2023/04/26 05:01:32;;;;;;;1999.90;999.90;;;5.00;99.90;;;;;;5051959;28;20481;-73
2023/04/26 05:03:59;;;;;;;1999.90;999.90;;;5.10;99.90;;;;;;5053502;28;20561;-73
2023/04/26 05:06:27;;;;;;;1999.90;999.90;;;5.20;99.90;;;;;;5061832;28;20477;-72
2023/04/26 05:08:54;;;;;;;1999.90;999.90;;;5.30;99.90;;;;;;5060187;28;20439;-69
2023/04/26 05:11:21;;;;;;;1999.90;999.90;;;5.40;99.90;;;;;;5061444;28;20431;-68
2023/04/26 05:13:48;;;;;;;1999.90;999.90;;;5.40;99.90;;;;;;5053860;28;20491;-72
2023/04/26 05:16:15;;;;;;;1999.90;999.90;;;5.60;99.90;;;;;;5054216;28;20437;-73
2023/04/26 05:18:42;;;;;;;1999.90;999.90;;;5.50;99.90;;;;;;5054421;28;20428;-73
2023/04/26 05:21:09;;;;;;;1999.90;999.90;;;5.50;99.90;;;;;;5061527;28;20441;-70
2023/04/26 05:23:37;;;;;;;1999.90;999.90;;;5.40;99.90;;;;;;5052555;28;20475;-70
2023/04/26 05:26:04;;;;;;;1999.90;999.90;;;5.40;99.90;;;;;;5048194;28;20915;-70
2023/04/26 05:28:31;;;;;;;1999.90;999.90;;;5.30;99.90;;;;;;5053760;28;20433;-72
2023/04/26 05:30:58;;;;;;;1999.90;999.90;;;5.30;99.90;;;;;;5048785;28;20436;-73
2023/04/26 05:33:25;;;;;;;1999.90;999.90;;;5.40;99.90;;;;;;5049068;28;20436;-72
2023/04/26 05:35:53;;;;;;;1999.90;999.90;;;5.50;99.90;;;;;;5047935;28;20464;-73
2023/04/26 05:38:20;;;;;;;1999.90;999.90;;;5.70;99.90;;;;;;5050921;28;20545;-73
2023/04/26 05:40:48;;;;;;;1999.90;999.90;;;5.90;99.90;;;;;;5051699;28;20511;-69
2023/04/26 05:43:15;;;;;;;1999.90;999.90;;;6.10;99.90;;;;;;5047252;28;20978;-72
2023/04/26 05:45:50;;;;;;;1999.90;999.90;;;6.30;99.90;;;;;;5047338;28;20441;-72
2023/04/26 05:48:17;;;;;;;1999.90;999.90;;;6.30;99.90;;;;;;5051105;28;20487;-73
2023/04/26 05:50:44;;;;;;;1999.90;999.90;;;6.40;99.90;;;;;;5048608;28;20860;-73
2023/04/26 05:53:10;;;;;;;1999.90;999.90;;;6.40;99.90;;;;;;5048615;28;20433;-70
2023/04/26 05:55:37;;;;;;;1999.90;999.90;;;6.60;99.90;;;;;;5048979;28;20494;-72
2023/04/26 05:58:05;;;;;;;1999.90;999.90;;;6.80;99.90;;;;;;5046343;28;20432;-74
2023/04/26 06:00:32;;;;;;;1999.90;999.90;;;7.00;99.90;;;;;;5049150;28;20846;-72
2023/04/26 06:02:59;;;;;;;1999.90;999.90;;;7.30;99.90;;;;;;5047124;28;20535;-72
2023/04/26 06:05:25;;;;;;;1999.90;999.90;;;7.30;99.90;;;;;;5050932;28;20433;-74
2023/04/26 06:07:52;;;;;;;1999.90;999.90;;;7.40;99.90;;;;;;5050547;28;20915;-71
2023/04/26 06:10:20;;;;;;;1999.90;999.90;;;7.50;99.90;;;;;;5049113;28;20429;-74
2023/04/26 06:12:47;;;;;;;1999.90;999.90;;;7.60;99.90;;;;;;5048282;28;20479;-72
2023/04/26 06:15:15;;;;;;;1999.90;999.90;;;7.80;99.90;;;;;;5046401;28;20436;-71
2023/04/26 06:17:42;;;;;;;1999.90;999.90;;;8.00;99.90;;;;;;5048835;28;20470;-72
2023/04/26 06:20:09;;;;;;;1999.90;999.90;;;7.80;99.90;;;;;;5063888;28;20862;-78
2023/04/26 06:22:36;;;;;;;1999.90;999.90;;;7.70;99.90;;;;;;5057179;28;20491;-72
2023/04/26 06:25:04;;;;;;;1999.90;999.90;;;7.60;99.90;;;;;;5052555;28;20796;-74
2023/04/26 06:27:31;;;;;;;1999.90;999.90;;;7.70;99.90;;;;;;5046475;28;20516;-75
2023/04/26 06:29:58;;;;;;;1999.90;999.90;;;7.80;99.90;;;;;;5041400;28;20430;-72
2023/04/26 06:32:26;;;;;;;1999.90;999.90;;;7.80;99.90;;;;;;5048384;28;20413;-72
2023/04/26 06:34:53;;;;;;;1999.90;999.90;;;7.90;99.90;;;;;;5050731;28;20438;-74
2023/04/26 06:37:20;;;;;;;1999.90;999.90;;;7.80;99.90;;;;;;5065920;28;20439;-73
2023/04/26 06:39:47;;;;;;;1999.90;999.90;;;8.10;99.90;;;;;;5049337;28;20479;-74
2023/04/26 06:42:13;;;;;;;1999.90;999.90;;;8.30;99.90;;;;;;5041116;28;20433;-70
2023/04/26 06:44:40;;;;;;;1999.90;999.90;;;8.40;99.90;;;;;;5047606;28;20429;-71
2023/04/26 06:47:08;;;;;;;1999.90;999.90;;;8.40;99.90;;;;;;5049358;28;20434;-73
2023/04/26 06:49:36;;;;;;;1999.90;999.90;;;8.60;99.90;;;;;;5051526;28;20429;-73
2023/04/26 06:52:05;;;;;;;1999.90;999.90;;;8.50;99.90;;;;;;5052306;28;20907;-73
2023/04/26 06:54:32;;;;;;;1999.90;999.90;;;8.60;99.90;;;;;;5044447;28;20461;-72
2023/04/26 06:56:59;;;;;;;1999.90;999.90;;;8.70;99.90;;;;;;5047788;28;20439;-73
2023/04/26 06:59:25;;;;;;;1999.90;999.90;;;8.80;99.90;;;;;;5050829;28;20480;-74
2023/04/26 07:01:53;;;;;;;1999.90;999.90;;;8.80;99.90;;;;;;5045777;28;20788;-70
2023/04/26 07:04:19;;;;;;;1999.90;999.90;;;8.80;99.90;;;;;;5055304;28;20432;-75
2023/04/26 07:06:47;;;;;;;1999.90;999.90;;;8.90;99.90;;;;;;5046906;28;20912;-72
2023/04/26 07:09:14;;;;;;;1999.90;999.90;;;9.10;99.90;;;;;;5045671;28;20432;-75
2023/04/26 07:11:41;;;;;;;1999.90;999.90;;;9.20;99.90;;;;;;5056439;28;20442;-72
2023/04/26 07:14:07;;;;;;;1999.90;999.90;;;9.30;99.90;;;;;;5060958;28;20923;-74
2023/04/26 07:16:34;;;;;;;1999.90;999.90;;;9.00;99.90;;;;;;5047220;28;20973;-75
2023/04/26 07:19:01;;;;;;;1999.90;999.90;;;8.90;99.90;;;;;;5049839;28;20456;-72
2023/04/26 07:21:27;;;;;;;1999.90;999.90;;;9.00;99.90;;;;;;5054730;28;20427;-75
2023/04/26 07:23:56;;;;;;;1999.90;999.90;;;9.30;99.90;;;;;;5062139;28;20415;-76
2023/04/26 07:26:23;;;;;;;1999.90;999.90;;;9.70;99.90;;;;;;5051241;28;20433;-75
2023/04/26 07:28:51;;;;;;;1999.90;999.90;;;9.80;99.90;;;;;;5059034;28;20445;-72
2023/04/26 07:31:18;;;;;;;1999.90;999.90;;;9.60;99.90;;;;;;5060206;28;20518;-74
2023/04/26 07:33:45;;;;;;;1999.90;999.90;;;9.00;99.90;;;;;;5052510;28;20421;-75
2023/04/26 07:36:11;;;;;;;1999.90;999.90;;;8.90;99.90;;;;;;5052212;28;20474;-71
2023/04/26 07:38:38;;;;;;;1999.90;999.90;;;9.10;99.90;;;;;;5051898;28;20429;-75
2023/04/26 07:41:06;;;;;;;1999.90;999.90;;;9.30;99.90;;;;;;5050979;28;20428;-73
2023/04/26 07:43:33;;;;;;;1999.90;999.90;;;9.70;99.90;;;;;;5054065;28;20434;-73
2023/04/26 07:46:00;;;;;;;1999.90;999.90;;;10.30;99.90;;;;;;5062499;28;20419;-75
2023/04/26 07:48:27;;;;;;;1999.90;999.90;;;10.10;99.90;;;;;;5072400;28;20411;-73
2023/04/26 07:50:55;;;;;;;1999.90;999.90;;;9.90;99.90;;;;;;5072640;28;20411;-73
2023/04/26 07:53:22;;;;;;;1999.90;999.90;;;9.80;99.90;;;;;;5065850;28;20519;-70
2023/04/26 07:55:50;;;;;;;1999.90;999.90;;;9.80;99.90;;;;;;5057198;28;20515;-74
2023/04/26 07:58:18;;;;;;;1999.90;999.90;;;9.30;99.90;;;;;;5048629;28;21011;-74
2023/04/26 08:00:45;;;;;;;1999.90;999.90;;;9.10;99.90;;;;;;5053427;28;20466;-71
2023/04/26 08:03:15;;;;;;;1999.90;999.90;;;9.40;99.90;;;;;;5053312;28;20434;-74
2023/04/26 08:05:41;;;;;;;1999.90;999.90;;;10.20;99.90;;;;;;5053945;28;20864;-71
2023/04/26 08:08:08;;;;;;;1999.90;999.90;;;10.80;99.90;;;;;;5058143;28;20418;-74
2023/04/26 08:10:35;;;;;;;1999.90;999.90;;;10.80;98.70;;;;;;5051271;28;20826;-74
2023/04/26 08:13:02;;;;;;;1999.90;999.90;;;10.40;99.40;;;;;;5057388;28;20427;-73
2023/04/26 08:15:31;;;;;;;1999.90;999.90;;;10.10;99.80;;;;;;5064716;28;20469;-74
2023/04/26 08:17:58;;;;;;;1999.90;999.90;;;10.10;99.90;;;;;;5070510;28;20840;-73
2023/04/26 08:20:24;;;;;;;1999.90;999.90;;;10.30;99.90;;;;;;5070780;28;20480;-74
2023/04/26 08:22:56;;;;;;;1999.90;999.90;;;10.30;99.90;;;;;;5070972;28;20447;-71
2023/04/26 08:25:23;;;;;;;1999.90;999.90;;;10.00;99.90;;;;;;5073491;28;20966;-71
2023/04/26 08:27:50;;;;;;;1999.90;999.90;;;9.80;99.90;;;;;;5064257;28;20487;-74
2023/04/26 08:30:17;;;;;;;1999.90;999.90;;;9.80;99.90;;;;;;5073260;28;20773;-74
2023/04/26 08:32:46;;;;;;;1999.90;999.90;;;10.20;99.40;;;;;;5073680;28;20495;-72
2023/04/26 08:35:13;;;;;;;1999.90;999.90;;;10.70;98.40;;;;;;5073630;28;20415;-72
2023/04/26 08:37:39;;;;;;;1999.90;999.90;;;10.90;96.80;;;;;;5066004;28;20919;-71
2023/04/26 08:40:09;;;;;;;1999.90;999.90;;;11.20;96.80;;;;;;5050214;28;20881;-70
2023/04/26 08:42:41;;;;;;;1999.90;999.90;;;11.40;96.60;;;;;;5058127;28;20481;-72
2023/04/26 08:45:10;;;;;;;1999.90;999.90;;;11.90;95.40;;;;;;5064196;28;20508;-72
2023/04/26 08:47:42;;;;;;;1999.90;999.90;;;12.30;94.90;;;;;;5053419;28;20408;-73
2023/04/26 08:50:13;;;;;;;1999.90;999.90;;;12.30;93.70;;;;;;5049564;28;20479;-74
2023/04/26 08:52:41;;;;;;;1999.90;999.90;;;11.70;94.00;;;;;;5051364;28;20433;-72
2023/04/26 08:55:09;;;;;;;1999.90;999.90;;;11.20;94.20;;;;;;5052739;28;20923;-74
2023/04/26 08:57:36;;;;;;;1999.90;999.90;;;11.10;95.60;;;;;;5051710;28;20432;-74
2023/04/26 09:00:08;;;;;;;1999.90;999.90;;;11.20;96.00;;;;;;5051029;28;20857;-77
2023/04/26 09:02:35;;;;;;;1999.90;999.90;;;11.00;95.00;;;;;;5051234;28;20483;-75
2023/04/26 09:05:03;;;;;;;1999.90;999.90;;;10.70;95.70;;;;;;5045420;28;20440;-70
2023/04/26 09:07:32;;;;;;;1999.90;999.90;;;10.60;96.40;;;;;;5060800;28;20806;-74
2023/04/26 09:10:01;;;;;;;1999.90;999.90;;;10.70;96.50;;;;;;5049858;28;20433;-72
2023/04/26 09:12:27;;;;;;;1999.90;999.90;;;10.70;96.00;;;;;;5065263;28;20437;-74
2023/04/26 09:14:55;;;;;;;1999.90;999.90;;;10.40;97.10;;;;;;5068628;28;20427;-70
2023/04/26 09:17:25;;;;;;;1999.90;999.90;;;10.10;97.00;;;;;;5052644;28;20507;-73
2023/04/26 09:19:52;;;;;;;1999.90;999.90;;;10.00;97.40;;;;;;5050535;28;20433;-73
2023/04/26 09:22:28;;;;;;;1999.90;999.90;;;10.20;97.20;;;;;;5048240;28;20435;-74
2023/04/26 09:24:56;;;;;;;1999.90;999.90;;;10.40;95.80;;;;;;5067720;28;20441;-74
2023/04/26 09:27:31;;;;;;;1999.90;999.90;;;10.50;95.40;;;;;;5051549;28;20831;-72
2023/04/26 09:29:59;;;;;;;1999.90;999.90;;;10.50;95.40;;;;;;5052585;28;20961;-74
2023/04/26 09:32:28;;;;;;;1999.90;999.90;;;10.30;95.50;;;;;;5054480;28;20484;-74
2023/04/26 09:34:54;;;;;;;1999.90;999.90;;;10.00;96.30;;;;;;5051667;28;20483;-74
2023/04/26 09:37:21;;;;;;;1999.90;999.90;;;9.80;97.90;;;;;;5063311;28;20890;-72
2023/04/26 09:39:48;;;;;;;1999.90;999.90;;;9.70;98.80;;;;;;5072559;28;20904;-74
2023/04/26 09:42:17;;;;;;;1999.90;999.90;;;9.60;98.70;;;;;;5072054;28;20420;-74
2023/04/26 09:44:45;;;;;;;1999.90;999.90;;;9.80;98.60;;;;;;5072329;28;20416;-75
2023/04/26 09:47:12;;;;;;;1999.90;999.90;;;9.90;98.70;;;;;;5072385;28;20447;-75
2023/04/26 09:49:47;;;;;;;1999.90;999.90;;;10.00;98.00;;;;;;5064741;28;20437;-76
2023/04/26 09:52:14;;;;;;;1999.90;999.90;;;10.10;97.50;;;;;;5062677;28;20539;-75
2023/04/26 09:54:43;;;;;;;1999.90;999.90;;;10.20;97.20;;;;;;5072062;28;20442;-72
2023/04/26 09:57:11;;;;;;;1999.90;999.90;;;10.50;97.10;;;;;;5071967;28;21040;-75
2023/04/26 09:59:46;;;;;;;1999.90;999.90;;;10.70;96.80;;;;;;5071978;28;20836;-72
2023/04/26 10:02:18;;;;;;;1999.90;999.90;;;10.90;96.20;;;;;;5072065;28;20539;-73
2023/04/26 10:04:46;;;;;;;1999.90;999.90;;;11.10;95.40;;;;;;5063406;28;20439;-72
2023/04/26 10:07:14;;;;;;;1999.90;999.90;;;11.40;95.20;;;;;;5054408;28;20429;-75
2023/04/26 10:09:42;;;;;;;1999.90;999.90;;;11.40;94.80;;;;;;5064308;28;20911;-74
2023/04/26 10:12:10;;;;;;;1999.90;999.90;;;11.50;95.50;;;;;;5070216;28;20469;-71
2023/04/26 10:14:37;;;;;;;1999.90;999.90;;;11.40;95.20;;;;;;5073686;28;20411;-71
2023/04/26 10:17:05;;;;;;;1999.90;999.90;;;11.10;95.10;;;;;;5073198;28;20423;-75
2023/04/26 10:19:34;;;;;;;1999.90;999.90;;;10.80;95.40;;;;;;5072756;28;20411;-75
2023/04/26 10:22:05;;;;;;;1999.90;999.90;;;10.80;95.70;;;;;;5061524;28;20461;-73
2023/04/26 10:24:32;;;;;;;1999.90;999.90;;;10.40;96.10;;;;;;5073939;28;20485;-75
2023/04/26 10:27:00;;;;;;;1999.90;999.90;;;10.10;95.90;;;;;;5074311;28;20913;-73
2023/04/26 10:30:08;;;;;;;1999.90;999.90;;;10.00;96.80;;;;;;5066214;28;20804;-76
2023/04/26 10:33:16;;;;;;;1999.90;999.90;;;10.10;96.90;;;;;;5032194;28;20931;-71
2023/04/26 10:36:01;;;;;;;1999.90;999.90;;;10.00;96.70;;;;;;5033155;28;20415;-75
2023/04/26 10:38:28;;;;;;;1999.90;999.90;;;10.30;96.70;;;;;;5032998;28;20905;-75
2023/04/26 10:40:55;;;;;;;1999.90;999.90;;;10.30;95.70;;;;;;5033634;28;20506;-75
2023/04/26 10:43:28;;;;;;;1999.90;999.90;;;10.30;95.40;;;;;;5047440;28;20925;-75
2023/04/26 10:45:56;;;;;;;1999.90;999.90;;;10.30;94.60;;;;;;5065787;28;20509;-74
2023/04/26 10:48:30;;;;;;;1999.90;999.90;;;10.40;94.60;;;;;;5072932;28;20503;-78
2023/04/26 10:51:11;;;;;;;1999.90;999.90;;;10.60;95.70;;;;;;5073326;28;20824;-74
2023/04/26 10:53:59;;;;;;;1999.90;999.90;;;10.70;95.00;;;;;;5073037;28;20897;-74
2023/04/26 10:56:50;;;;;;;1999.90;999.90;;;10.40;96.00;;;;;;5072989;28;20442;-72
2023/04/26 10:59:20;;;;;;;1999.90;999.90;;;10.40;96.00;;;;;;5063345;28;20467;-74
2023/04/26 11:01:47;;;;;;;1999.90;999.90;;;10.40;96.40;;;;;;5072951;28;20511;-70
2023/04/26 11:04:15;;;;;;;1999.90;999.90;;;10.20;95.40;;;;;;5073640;28;20415;-73
2023/04/26 11:06:50;;;;;;;1999.90;999.90;;;10.20;95.70;;;;;;5071492;28;20972;-75
2023/04/26 11:09:48;;;;;;;1999.90;999.90;;;10.40;96.10;;;;;;5070905;28;20408;-74
2023/04/26 11:12:16;;;;;;;1999.90;999.90;;;10.60;96.00;;;;;;5006356;28;20429;-74
2023/04/26 11:14:45;;;;;;;1999.90;999.90;;;10.90;95.20;;;;;;5062255;28;20452;-71
2023/04/26 11:17:12;;;;;;;1999.90;999.90;;;11.10;95.70;;;;;;5070507;28;20447;-75
2023/04/26 11:19:41;;;;;;;1999.90;999.90;;;11.00;94.70;;;;;;5070846;28;20411;-74
2023/04/26 11:22:08;;;;;;;1999.90;999.90;;;11.10;94.80;;;;;;5070308;28;20423;-74
2023/04/26 11:24:37;;;;;;;1999.90;999.90;;;11.70;94.50;;;;;;5070498;28;20407;-74
2023/04/26 11:27:09;;;;;;;1999.90;999.90;;;12.20;93.10;;;;;;5066899;28;20428;-71
2023/04/26 11:29:35;;;;;;;1999.90;999.90;;;12.20;92.90;;;;;;5063908;28;20422;-74
2023/04/26 11:32:02;;;;;;;1999.90;999.90;;;12.20;92.50;;;;;;5070529;28;20498;-74
2023/04/26 11:34:33;;;;;;;1999.90;999.90;;;11.80;92.40;;;;;;5070570;28;20441;-72
2023/04/26 11:37:02;;;;;;;1999.90;999.90;;;11.60;92.80;;;;;;5070279;28;20416;-74
2023/04/26 11:39:28;;;;;;;1999.90;999.90;;;11.40;92.80;;;;;;5070670;28;20419;-73
2023/04/26 11:42:04;;;;;;;1999.90;999.90;;;11.30;93.40;;;;;;5055209;28;20573;-72
2023/04/26 11:44:31;;;;;;;1999.90;999.90;;;11.40;92.80;;;;;;5051591;28;20417;-72
2023/04/26 11:46:58;;;;;;;1999.90;999.90;;;11.50;92.40;;;;;;5050343;28;20455;-73
2023/04/26 11:49:25;;;;;;;1999.90;999.90;;;11.40;91.70;;;;;;5048366;28;20466;-72
2023/04/26 11:51:53;;;;;;;1999.90;999.90;;;11.70;92.60;;;;;;5045937;28;20850;-71
2023/04/26 11:54:31;;;;;;;1999.90;999.90;;;11.60;92.70;;;;;;5052732;28;20571;-71
2023/04/26 11:56:58;;;;;;;1999.90;999.90;;;11.90;92.20;;;;;;5045532;28;20428;-74
2023/04/26 11:59:25;;;;;;;1999.90;999.90;;;11.80;91.20;;;;;;5054493;28;20427;-72
2023/04/26 12:01:52;;;;;;;1999.90;999.90;;;11.50;91.50;;;;;;5052416;28;21016;-73
2023/04/26 12:04:19;;;;;;;1999.90;999.90;;;11.40;92.10;;;;;;5051208;28;20522;-71
2023/04/26 12:06:48;;;;;;;1999.90;999.90;;;11.60;91.90;;;;;;5050470;28;20785;-69
2023/04/26 12:09:16;;;;;;;1999.90;999.90;;;11.60;92.90;;;;;;5048984;28;20530;-72
2023/04/26 12:11:48;;;;;;;1999.90;999.90;;;11.60;92.00;;;;;;5051052;28;20455;-73